weather.gov     
National Weather Service

Terminal Aerodrome Forecast
NWS Homepage
This page is being discontinued on March 12, 2014.
The same data is available at this site. Please update your bookmarks.
Thank you, and we apologize for the inconvenience.
Please send an email to SR-SRH.Webmaster@noaa.gov with any concerns.


Current Version
Previous Version:    01  02  03  04  05  06  07  08  09  10  11  12  13  14  15  16  17  18  19  20  21  22  23  24  25  26  27  28  29  30  
   31  32  33  34  35  36  37  38  39  
[Printable]
466
FTUS46 KMFR 220500 RRA
TAFOTH
TAF
KOTH 220543Z 2206/2306 16010KT P6SM -SHRA BKN035 OVC050
      WS020/19040KT
     FM220900 17014G20KT 6SM -RA SCT025 OVC030 WS020/20050KT
     FM221200 17015G24KT 5SM RA BKN025 OVC035 WS020/19050KT
     FM221800 19020G35KT 4SM RA SCT015 BKN025 OVC035
     FM230200 20014KT 5SM -RA SCT015 BKN020 OVC035=


U.S. Dept. of Commerce
NOAA National Weather Service
1325 East West Highway
Silver Spring, MD 20910
E-mail: w-nws.webmaster@noaa.gov
Page last modified: May 16, 2007
NATIONAL WEATHER SERVICE: for Safety, for Work, for Fun - FOR LIFE